sensor_id;sensor_type;location;lat;lon;timestamp;temperature;humidity
70107;DHT22;57473;37.508;15.080;2023-03-04T00:01:49;7.50;99.90
70107;DHT22;57473;37.508;15.080;2023-03-04T00:04:16;7.50;99.90
70107;DHT22;57473;37.508;15.080;2023-03-04T00:06:44;7.50;99.90
70107;DHT22;57473;37.508;15.080;2023-03-04T00:09:11;7.50;99.90
70107;DHT22;57473;37.508;15.080;2023-03-04T00:11:38;7.50;99.90
70107;DHT22;57473;37.508;15.080;2023-03-04T00:14:06;7.50;99.80
70107;DHT22;57473;37.508;15.080;2023-03-04T00:16:33;7.60;99.50
70107;DHT22;57473;37.508;15.080;2023-03-04T00:19:00;7.60;99.60
70107;DHT22;57473;37.508;15.080;2023-03-04T00:21:28;7.60;99.40
70107;DHT22;57473;37.508;15.080;2023-03-04T00:23:55;7.50;99.20
70107;DHT22;57473;37.508;15.080;2023-03-04T00:26:23;7.50;99.80
70107;DHT22;57473;37.508;15.080;2023-03-04T00:28:50;7.50;99.40
70107;DHT22;57473;37.508;15.080;2023-03-04T00:31:17;7.50;99.90
70107;DHT22;57473;37.508;15.080;2023-03-04T00:33:45;7.50;99.50
70107;DHT22;57473;37.508;15.080;2023-03-04T00:36:12;7.50;98.90
70107;DHT22;57473;37.508;15.080;2023-03-04T00:38:40;7.50;99.10
70107;DHT22;57473;37.508;15.080;2023-03-04T00:41:07;7.40;99.90
70107;DHT22;57473;37.508;15.080;2023-03-04T00:43:35;7.50;99.60
70107;DHT22;57473;37.508;15.080;2023-03-04T00:46:02;7.50;99.10
70107;DHT22;57473;37.508;15.080;2023-03-04T00:48:29;7.50;99.60
70107;DHT22;57473;37.508;15.080;2023-03-04T00:50:57;7.50;99.30
70107;DHT22;57473;37.508;15.080;2023-03-04T00:53:24;7.50;99.20
70107;DHT22;57473;37.508;15.080;2023-03-04T00:55:51;7.40;99.40
70107;DHT22;57473;37.508;15.080;2023-03-04T00:58:19;7.40;99.80
70107;DHT22;57473;37.508;15.080;2023-03-04T01:00:46;7.30;99.90
70107;DHT22;57473;37.508;15.080;2023-03-04T01:03:13;7.20;99.90
70107;DHT22;57473;37.508;15.080;2023-03-04T01:05:41;7.20;99.90
70107;DHT22;57473;37.508;15.080;2023-03-04T01:08:08;7.20;99.90
70107;DHT22;57473;37.508;15.080;2023-03-04T01:10:36;7.20;99.90
70107;DHT22;57473;37.508;15.080;2023-03-04T01:13:03;7.10;99.90
70107;DHT22;57473;37.508;15.080;2023-03-04T01:15:30;7.10;99.90
70107;DHT22;57473;37.508;15.080;2023-03-04T01:17:58;7.10;99.90
70107;DHT22;57473;37.508;15.080;2023-03-04T01:20:25;7.10;99.90
70107;DHT22;57473;37.508;15.080;2023-03-04T01:22:52;7.20;99.90
70107;DHT22;57473;37.508;15.080;2023-03-04T01:25:20;7.20;99.90
70107;DHT22;57473;37.508;15.080;2023-03-04T01:27:47;7.20;99.90
70107;DHT22;57473;37.508;15.080;2023-03-04T01:30:14;7.10;99.90
70107;DHT22;57473;37.508;15.080;2023-03-04T01:32:42;7.10;99.90
70107;DHT22;57473;37.508;15.080;2023-03-04T01:35:09;7.10;99.90
70107;DHT22;57473;37.508;15.080;2023-03-04T01:37:36;7.20;99.20
70107;DHT22;57473;37.508;15.080;2023-03-04T01:40:05;7.20;98.50
70107;DHT22;57473;37.508;15.080;2023-03-04T01:42:34;7.30;98.00
70107;DHT22;57473;37.508;15.080;2023-03-04T01:45:03;7.30;97.80
70107;DHT22;57473;37.508;15.080;2023-03-04T01:47:32;7.30;97.00
70107;DHT22;57473;37.508;15.080;2023-03-04T01:50:04;7.30;96.90
70107;DHT22;57473;37.508;15.080;2023-03-04T01:52:33;7.30;96.60
70107;DHT22;57473;37.508;15.080;2023-03-04T01:55:00;7.30;96.60
70107;DHT22;57473;37.508;15.080;2023-03-04T01:57:34;7.20;96.90
70107;DHT22;57473;37.508;15.080;2023-03-04T02:00:22;7.20;96.60
70107;DHT22;57473;37.508;15.080;2023-03-04T02:02:53;7.30;95.90
70107;DHT22;57473;37.508;15.080;2023-03-04T02:05:21;7.40;95.00
70107;DHT22;57473;37.508;15.080;2023-03-04T02:07:50;7.40;94.90
70107;DHT22;57473;37.508;15.080;2023-03-04T02:10:19;7.40;94.30
70107;DHT22;57473;37.508;15.080;2023-03-04T02:12:46;7.40;94.00
70107;DHT22;57473;37.508;15.080;2023-03-04T02:15:14;7.50;93.90
70107;DHT22;57473;37.508;15.080;2023-03-04T02:17:41;7.50;93.40
70107;DHT22;57473;37.508;15.080;2023-03-04T02:20:22;7.50;93.30
70107;DHT22;57473;37.508;15.080;2023-03-04T02:22:53;7.50;93.20
70107;DHT22;57473;37.508;15.080;2023-03-04T02:25:30;7.40;93.00
70107;DHT22;57473;37.508;15.080;2023-03-04T02:27:59;7.40;92.40
70107;DHT22;57473;37.508;15.080;2023-03-04T02:30:26;7.40;92.60
70107;DHT22;57473;37.508;15.080;2023-03-04T02:32:54;7.30;93.00
70107;DHT22;57473;37.508;15.080;2023-03-04T02:35:22;7.30;93.20
70107;DHT22;57473;37.508;15.080;2023-03-04T02:37:49;7.20;93.50
70107;DHT22;57473;37.508;15.080;2023-03-04T02:40:35;7.20;93.40
70107;DHT22;57473;37.508;15.080;2023-03-04T02:43:03;7.20;93.00
70107;DHT22;57473;37.508;15.080;2023-03-04T02:45:48;7.20;93.00
70107;DHT22;57473;37.508;15.080;2023-03-04T02:48:19;7.20;92.80
70107;DHT22;57473;37.508;15.080;2023-03-04T02:50:50;7.20;92.80
70107;DHT22;57473;37.508;15.080;2023-03-04T02:53:18;7.20;92.80
70107;DHT22;57473;37.508;15.080;2023-03-04T02:55:47;7.20;93.00
70107;DHT22;57473;37.508;15.080;2023-03-04T02:58:17;7.20;93.10
70107;DHT22;57473;37.508;15.080;2023-03-04T03:00:45;7.10;93.20
70107;DHT22;57473;37.508;15.080;2023-03-04T03:03:13;7.10;93.80
70107;DHT22;57473;37.508;15.080;2023-03-04T03:05:41;7.10;94.20
70107;DHT22;57473;37.508;15.080;2023-03-04T03:08:09;7.00;94.50
70107;DHT22;57473;37.508;15.080;2023-03-04T03:10:37;7.00;94.70
70107;DHT22;57473;37.508;15.080;2023-03-04T03:13:06;6.90;94.60
70107;DHT22;57473;37.508;15.080;2023-03-04T03:15:33;6.90;95.00
70107;DHT22;57473;37.508;15.080;2023-03-04T03:18:00;6.80;94.90
70107;DHT22;57473;37.508;15.080;2023-03-04T03:20:28;6.80;94.80
70107;DHT22;57473;37.508;15.080;2023-03-04T03:22:55;6.90;94.90
70107;DHT22;57473;37.508;15.080;2023-03-04T03:25:22;6.90;94.40
70107;DHT22;57473;37.508;15.080;2023-03-04T03:27:52;6.90;94.20
70107;DHT22;57473;37.508;15.080;2023-03-04T03:30:20;6.90;94.70
70107;DHT22;57473;37.508;15.080;2023-03-04T03:32:47;6.90;94.60
70107;DHT22;57473;37.508;15.080;2023-03-04T03:35:15;6.90;94.70
70107;DHT22;57473;37.508;15.080;2023-03-04T03:37:42;6.90;94.80
70107;DHT22;57473;37.508;15.080;2023-03-04T03:40:10;6.80;94.20
70107;DHT22;57473;37.508;15.080;2023-03-04T03:42:37;6.80;94.60
70107;DHT22;57473;37.508;15.080;2023-03-04T03:45:05;6.90;94.00
70107;DHT22;57473;37.508;15.080;2023-03-04T03:47:33;6.90;93.90
70107;DHT22;57473;37.508;15.080;2023-03-04T03:50:00;7.00;93.80
70107;DHT22;57473;37.508;15.080;2023-03-04T03:52:27;7.00;93.80
70107;DHT22;57473;37.508;15.080;2023-03-04T03:54:55;7.00;94.10
70107;DHT22;57473;37.508;15.080;2023-03-04T03:57:22;7.00;94.00
70107;DHT22;57473;37.508;15.080;2023-03-04T03:59:49;7.00;93.70
70107;DHT22;57473;37.508;15.080;2023-03-04T04:02:17;7.00;93.80
70107;DHT22;57473;37.508;15.080;2023-03-04T04:04:44;6.90;93.70
70107;DHT22;57473;37.508;15.080;2023-03-04T04:07:12;6.90;94.50
70107;DHT22;57473;37.508;15.080;2023-03-04T04:09:39;6.90;94.60
70107;DHT22;57473;37.508;15.080;2023-03-04T04:12:07;6.90;94.30
70107;DHT22;57473;37.508;15.080;2023-03-04T04:14:34;6.80;94.20
70107;DHT22;57473;37.508;15.080;2023-03-04T04:17:01;6.80;94.20
70107;DHT22;57473;37.508;15.080;2023-03-04T04:19:29;6.80;94.10
70107;DHT22;57473;37.508;15.080;2023-03-04T04:21:56;6.80;94.50
70107;DHT22;57473;37.508;15.080;2023-03-04T04:24:23;6.70;95.10
70107;DHT22;57473;37.508;15.080;2023-03-04T04:26:51;6.60;95.40
70107;DHT22;57473;37.508;15.080;2023-03-04T04:29:18;6.50;95.90
70107;DHT22;57473;37.508;15.080;2023-03-04T04:31:46;6.50;96.50
70107;DHT22;57473;37.508;15.080;2023-03-04T04:34:13;6.50;96.50
70107;DHT22;57473;37.508;15.080;2023-03-04T04:36:41;6.50;96.20
70107;DHT22;57473;37.508;15.080;2023-03-04T04:39:08;6.50;96.10
70107;DHT22;57473;37.508;15.080;2023-03-04T04:41:38;6.40;96.50
70107;DHT22;57473;37.508;15.080;2023-03-04T04:44:07;6.40;96.40
70107;DHT22;57473;37.508;15.080;2023-03-04T04:46:35;6.40;96.70
70107;DHT22;57473;37.508;15.080;2023-03-04T04:49:03;6.40;96.30
70107;DHT22;57473;37.508;15.080;2023-03-04T04:51:31;6.40;96.00
70107;DHT22;57473;37.508;15.080;2023-03-04T04:54:00;6.40;96.10
70107;DHT22;57473;37.508;15.080;2023-03-04T04:56:28;6.40;95.80
70107;DHT22;57473;37.508;15.080;2023-03-04T04:58:57;6.40;96.00
70107;DHT22;57473;37.508;15.080;2023-03-04T05:01:26;6.40;95.90
70107;DHT22;57473;37.508;15.080;2023-03-04T05:03:54;6.40;95.50
70107;DHT22;57473;37.508;15.080;2023-03-04T05:06:23;6.40;95.50
70107;DHT22;57473;37.508;15.080;2023-03-04T05:08:51;6.40;95.70
70107;DHT22;57473;37.508;15.080;2023-03-04T05:11:19;6.30;95.60
70107;DHT22;57473;37.508;15.080;2023-03-04T05:13:47;6.40;95.30
70107;DHT22;57473;37.508;15.080;2023-03-04T05:16:15;6.40;94.90
70107;DHT22;57473;37.508;15.080;2023-03-04T05:18:43;6.40;94.20
70107;DHT22;57473;37.508;15.080;2023-03-04T05:21:11;6.50;93.40
70107;DHT22;57473;37.508;15.080;2023-03-04T05:23:42;6.50;93.50
70107;DHT22;57473;37.508;15.080;2023-03-04T05:26:13;6.50;93.20
70107;DHT22;57473;37.508;15.080;2023-03-04T05:28:41;6.50;92.90
70107;DHT22;57473;37.508;15.080;2023-03-04T05:31:08;6.50;92.80
70107;DHT22;57473;37.508;15.080;2023-03-04T05:33:36;6.50;93.00
70107;DHT22;57473;37.508;15.080;2023-03-04T05:36:05;6.50;93.00
70107;DHT22;57473;37.508;15.080;2023-03-04T05:38:32;6.60;92.40
70107;DHT22;57473;37.508;15.080;2023-03-04T05:41:03;6.60;91.80
70107;DHT22;57473;37.508;15.080;2023-03-04T05:43:33;6.60;91.40
70107;DHT22;57473;37.508;15.080;2023-03-04T05:46:02;6.60;92.00
70107;DHT22;57473;37.508;15.080;2023-03-04T05:48:30;6.60;92.10
70107;DHT22;57473;37.508;15.080;2023-03-04T05:50:59;6.60;91.80
70107;DHT22;57473;37.508;15.080;2023-03-04T05:53:27;6.60;91.70
70107;DHT22;57473;37.508;15.080;2023-03-04T05:55:55;6.70;91.10
70107;DHT22;57473;37.508;15.080;2023-03-04T05:58:22;6.60;90.90
70107;DHT22;57473;37.508;15.080;2023-03-04T06:00:49;6.60;90.70
70107;DHT22;57473;37.508;15.080;2023-03-04T06:03:19;6.60;90.80
70107;DHT22;57473;37.508;15.080;2023-03-04T06:05:47;6.60;90.70
70107;DHT22;57473;37.508;15.080;2023-03-04T06:08:15;6.70;90.60
70107;DHT22;57473;37.508;15.080;2023-03-04T06:10:42;6.70;90.20
70107;DHT22;57473;37.508;15.080;2023-03-04T06:13:10;6.70;90.20
70107;DHT22;57473;37.508;15.080;2023-03-04T06:15:38;6.70;89.90
70107;DHT22;57473;37.508;15.080;2023-03-04T06:18:06;6.80;90.00
70107;DHT22;57473;37.508;15.080;2023-03-04T06:20:34;6.90;90.00
70107;DHT22;57473;37.508;15.080;2023-03-04T06:23:02;6.90;89.80
70107;DHT22;57473;37.508;15.080;2023-03-04T06:25:30;7.00;89.60
70107;DHT22;57473;37.508;15.080;2023-03-04T06:27:58;7.00;89.90
70107;DHT22;57473;37.508;15.080;2023-03-04T06:30:25;7.10;90.50
70107;DHT22;57473;37.508;15.080;2023-03-04T06:32:52;7.20;90.10
70107;DHT22;57473;37.508;15.080;2023-03-04T06:35:20;7.30;90.20
70107;DHT22;57473;37.508;15.080;2023-03-04T06:37:48;7.40;87.60
70107;DHT22;57473;37.508;15.080;2023-03-04T06:40:15;7.40;87.40
70107;DHT22;57473;37.508;15.080;2023-03-04T06:42:43;7.40;87.10
70107;DHT22;57473;37.508;15.080;2023-03-04T06:45:11;7.40;87.30
70107;DHT22;57473;37.508;15.080;2023-03-04T06:47:38;7.40;87.60
70107;DHT22;57473;37.508;15.080;2023-03-04T06:50:06;7.40;86.80
70107;DHT22;57473;37.508;15.080;2023-03-04T06:52:34;7.50;86.90
70107;DHT22;57473;37.508;15.080;2023-03-04T06:55:01;7.50;86.00
70107;DHT22;57473;37.508;15.080;2023-03-04T06:57:30;7.70;85.10
70107;DHT22;57473;37.508;15.080;2023-03-04T06:59:58;7.80;85.30
70107;DHT22;57473;37.508;15.080;2023-03-04T07:02:25;7.90;84.60
70107;DHT22;57473;37.508;15.080;2023-03-04T07:04:52;8.00;83.10
70107;DHT22;57473;37.508;15.080;2023-03-04T07:07:20;8.10;83.20
70107;DHT22;57473;37.508;15.080;2023-03-04T07:09:47;8.10;83.50
70107;DHT22;57473;37.508;15.080;2023-03-04T07:12:15;8.20;83.30
70107;DHT22;57473;37.508;15.080;2023-03-04T07:14:42;8.30;83.10
70107;DHT22;57473;37.508;15.080;2023-03-04T07:17:10;8.40;83.60
70107;DHT22;57473;37.508;15.080;2023-03-04T07:19:37;8.50;83.20
70107;DHT22;57473;37.508;15.080;2023-03-04T07:22:05;8.60;83.10
70107;DHT22;57473;37.508;15.080;2023-03-04T07:24:32;8.70;82.50
70107;DHT22;57473;37.508;15.080;2023-03-04T07:26:59;8.80;83.30
70107;DHT22;57473;37.508;15.080;2023-03-04T07:29:27;8.90;83.90
70107;DHT22;57473;37.508;15.080;2023-03-04T07:31:54;9.10;83.60
70107;DHT22;57473;37.508;15.080;2023-03-04T07:34:29;9.30;82.90
70107;DHT22;57473;37.508;15.080;2023-03-04T07:36:57;9.40;81.10
70107;DHT22;57473;37.508;15.080;2023-03-04T07:39:24;9.50;81.50
70107;DHT22;57473;37.508;15.080;2023-03-04T07:41:51;9.60;81.40
70107;DHT22;57473;37.508;15.080;2023-03-04T07:44:19;9.70;81.20
70107;DHT22;57473;37.508;15.080;2023-03-04T07:46:48;9.80;81.50
70107;DHT22;57473;37.508;15.080;2023-03-04T07:49:16;10.00;81.20
70107;DHT22;57473;37.508;15.080;2023-03-04T07:51:43;10.00;80.80
70107;DHT22;57473;37.508;15.080;2023-03-04T07:54:11;10.10;81.20
70107;DHT22;57473;37.508;15.080;2023-03-04T07:56:38;10.30;80.40
70107;DHT22;57473;37.508;15.080;2023-03-04T07:59:06;10.50;80.20
70107;DHT22;57473;37.508;15.080;2023-03-04T08:01:35;10.60;79.60
70107;DHT22;57473;37.508;15.080;2023-03-04T08:04:05;10.60;79.50
70107;DHT22;57473;37.508;15.080;2023-03-04T08:06:33;10.60;78.80
70107;DHT22;57473;37.508;15.080;2023-03-04T08:09:04;10.60;80.80
70107;DHT22;57473;37.508;15.080;2023-03-04T08:11:34;10.80;81.10
70107;DHT22;57473;37.508;15.080;2023-03-04T08:14:02;10.80;80.60
70107;DHT22;57473;37.508;15.080;2023-03-04T08:16:30;10.90;79.60
70107;DHT22;57473;37.508;15.080;2023-03-04T08:19:00;10.90;80.40
70107;DHT22;57473;37.508;15.080;2023-03-04T08:21:28;11.00;80.70
70107;DHT22;57473;37.508;15.080;2023-03-04T08:23:57;11.10;80.40
70107;DHT22;57473;37.508;15.080;2023-03-04T08:26:31;11.10;81.30
70107;DHT22;57473;37.508;15.080;2023-03-04T08:29:02;11.30;80.10
70107;DHT22;57473;37.508;15.080;2023-03-04T08:31:30;11.20;80.70
70107;DHT22;57473;37.508;15.080;2023-03-04T08:33:58;11.40;80.90
70107;DHT22;57473;37.508;15.080;2023-03-04T08:36:25;11.50;80.60
70107;DHT22;57473;37.508;15.080;2023-03-04T08:38:53;11.70;80.00
70107;DHT22;57473;37.508;15.080;2023-03-04T08:41:20;11.90;79.20
70107;DHT22;57473;37.508;15.080;2023-03-04T08:43:48;11.80;78.60
70107;DHT22;57473;37.508;15.080;2023-03-04T08:46:16;12.00;79.00
70107;DHT22;57473;37.508;15.080;2023-03-04T08:48:44;12.10;79.40
70107;DHT22;57473;37.508;15.080;2023-03-04T08:51:13;12.20;78.90
70107;DHT22;57473;37.508;15.080;2023-03-04T08:53:41;12.30;79.40
70107;DHT22;57473;37.508;15.080;2023-03-04T08:56:09;12.40;79.50
70107;DHT22;57473;37.508;15.080;2023-03-04T08:58:37;12.60;79.50
70107;DHT22;57473;37.508;15.080;2023-03-04T09:01:08;12.70;78.60
70107;DHT22;57473;37.508;15.080;2023-03-04T09:03:36;12.80;77.50
70107;DHT22;57473;37.508;15.080;2023-03-04T09:06:04;13.00;74.90
70107;DHT22;57473;37.508;15.080;2023-03-04T09:08:32;13.10;73.70
70107;DHT22;57473;37.508;15.080;2023-03-04T09:10:59;13.20;73.50
70107;DHT22;57473;37.508;15.080;2023-03-04T09:13:29;13.30;71.50
70107;DHT22;57473;37.508;15.080;2023-03-04T09:15:57;13.40;71.50
70107;DHT22;57473;37.508;15.080;2023-03-04T09:18:25;13.50;71.10
70107;DHT22;57473;37.508;15.080;2023-03-04T09:20:53;13.50;72.10
70107;DHT22;57473;37.508;15.080;2023-03-04T09:23:21;13.70;72.50
70107;DHT22;57473;37.508;15.080;2023-03-04T09:25:49;13.80;72.10
70107;DHT22;57473;37.508;15.080;2023-03-04T09:28:17;14.00;69.60
70107;DHT22;57473;37.508;15.080;2023-03-04T09:30:44;14.10;68.80
70107;DHT22;57473;37.508;15.080;2023-03-04T09:33:12;14.10;67.50
70107;DHT22;57473;37.508;15.080;2023-03-04T09:35:40;14.00;67.50
70107;DHT22;57473;37.508;15.080;2023-03-04T09:38:07;14.00;67.40
70107;DHT22;57473;37.508;15.080;2023-03-04T09:40:44;14.00;67.00
70107;DHT22;57473;37.508;15.080;2023-03-04T09:43:21;14.00;65.80
70107;DHT22;57473;37.508;15.080;2023-03-04T09:45:54;14.10;66.80
70107;DHT22;57473;37.508;15.080;2023-03-04T09:48:25;14.30;65.10
70107;DHT22;57473;37.508;15.080;2023-03-04T09:54:03;14.60;61.20
70107;DHT22;57473;37.508;15.080;2023-03-04T09:56:41;14.60;60.00
70107;DHT22;57473;37.508;15.080;2023-03-04T09:59:22;14.70;60.20
70107;DHT22;57473;37.508;15.080;2023-03-04T10:01:57;14.80;59.30
70107;DHT22;57473;37.508;15.080;2023-03-04T10:07:00;14.80;59.70
70107;DHT22;57473;37.508;15.080;2023-03-04T10:09:56;14.70;58.90
70107;DHT22;57473;37.508;15.080;2023-03-04T10:12:28;14.70;58.30
70107;DHT22;57473;37.508;15.080;2023-03-04T10:15:17;14.70;59.50
70107;DHT22;57473;37.508;15.080;2023-03-04T10:17:52;14.80;58.00
70107;DHT22;57473;37.508;15.080;2023-03-04T10:20:25;14.80;58.10
70107;DHT22;57473;37.508;15.080;2023-03-04T10:23:01;14.90;58.00
70107;DHT22;57473;37.508;15.080;2023-03-04T10:25:42;15.00;57.80
70107;DHT22;57473;37.508;15.080;2023-03-04T10:28:11;15.10;57.40
70107;DHT22;57473;37.508;15.080;2023-03-04T10:33:33;15.20;55.20
70107;DHT22;57473;37.508;15.080;2023-03-04T10:41:27;15.50;53.20
70107;DHT22;57473;37.508;15.080;2023-03-04T10:46:28;15.40;51.30
70107;DHT22;57473;37.508;15.080;2023-03-04T10:48:57;15.50;51.10
70107;DHT22;57473;37.508;15.080;2023-03-04T10:51:27;15.60;51.00
70107;DHT22;57473;37.508;15.080;2023-03-04T10:53:58;15.70;50.90
70107;DHT22;57473;37.508;15.080;2023-03-04T10:56:40;15.80;51.40
70107;DHT22;57473;37.508;15.080;2023-03-04T11:10:24;16.10;50.90
70107;DHT22;57473;37.508;15.080;2023-03-04T11:15:27;16.30;51.10
70107;DHT22;57473;37.508;15.080;2023-03-04T11:18:08;16.70;50.30
70107;DHT22;57473;37.508;15.080;2023-03-04T11:20:44;17.10;50.10
70107;DHT22;57473;37.508;15.080;2023-03-04T11:23:17;17.30;49.40
70107;DHT22;57473;37.508;15.080;2023-03-04T11:25:51;17.60;48.50
70107;DHT22;57473;37.508;15.080;2023-03-04T11:31:31;17.60;48.00
70107;DHT22;57473;37.508;15.080;2023-03-04T11:34:49;17.80;47.50
70107;DHT22;57473;37.508;15.080;2023-03-04T11:37:07;18.20;46.10
70107;DHT22;57473;37.508;15.080;2023-03-04T11:39:43;19.00;44.90
70107;DHT22;57473;37.508;15.080;2023-03-04T11:42:48;19.20;43.60
70107;DHT22;57473;37.508;15.080;2023-03-04T11:48:23;18.70;44.40
70107;DHT22;57473;37.508;15.080;2023-03-04T11:51:03;18.40;45.30
70107;DHT22;57473;37.508;15.080;2023-03-04T11:53:54;18.20;44.90
70107;DHT22;57473;37.508;15.080;2023-03-04T11:56:42;18.60;44.70
70107;DHT22;57473;37.508;15.080;2023-03-04T12:02:19;19.10;43.90
70107;DHT22;57473;37.508;15.080;2023-03-04T12:10:58;19.00;44.20
70107;DHT22;57473;37.508;15.080;2023-03-04T12:16:16;18.30;45.70
70107;DHT22;57473;37.508;15.080;2023-03-04T12:24:33;18.20;46.10
70107;DHT22;57473;37.508;15.080;2023-03-04T12:43:34;20.30;41.90
70107;DHT22;57473;37.508;15.080;2023-03-04T12:57:12;20.10;42.90
70107;DHT22;57473;37.508;15.080;2023-03-04T13:10:22;20.60;40.90
70107;DHT22;57473;37.508;15.080;2023-03-04T13:12:59;20.70;40.70
70107;DHT22;57473;37.508;15.080;2023-03-04T13:18:32;20.60;41.10
70107;DHT22;57473;37.508;15.080;2023-03-04T13:23:44;20.20;41.00
70107;DHT22;57473;37.508;15.080;2023-03-04T13:26:19;20.50;40.40
70107;DHT22;57473;37.508;15.080;2023-03-04T13:34:51;20.90;38.70
70107;DHT22;57473;37.508;15.080;2023-03-04T13:37:34;20.60;40.50
70107;DHT22;57473;37.508;15.080;2023-03-04T13:51:29;17.10;49.00
70107;DHT22;57473;37.508;15.080;2023-03-04T14:06:47;16.90;47.50
70107;DHT22;57473;37.508;15.080;2023-03-04T14:09:23;16.80;47.70
70107;DHT22;57473;37.508;15.080;2023-03-04T14:12:02;16.80;47.20
70107;DHT22;57473;37.508;15.080;2023-03-04T14:14:44;16.70;46.30
70107;DHT22;57473;37.508;15.080;2023-03-04T14:17:30;16.70;46.80
70107;DHT22;57473;37.508;15.080;2023-03-04T14:19:59;16.70;47.30
70107;DHT22;57473;37.508;15.080;2023-03-04T14:22:38;16.90;46.90
70107;DHT22;57473;37.508;15.080;2023-03-04T14:28:19;17.00;46.60
70107;DHT22;57473;37.508;15.080;2023-03-04T14:30:55;16.90;46.30
70107;DHT22;57473;37.508;15.080;2023-03-04T14:33:34;16.80;46.80
70107;DHT22;57473;37.508;15.080;2023-03-04T14:36:02;16.70;47.00
70107;DHT22;57473;37.508;15.080;2023-03-04T14:38:37;16.60;47.40
70107;DHT22;57473;37.508;15.080;2023-03-04T14:41:14;16.40;48.50
70107;DHT22;57473;37.508;15.080;2023-03-04T14:46:58;16.30;52.90
70107;DHT22;57473;37.508;15.080;2023-03-04T14:49:37;16.00;55.50
70107;DHT22;57473;37.508;15.080;2023-03-04T14:52:06;15.70;57.20
70107;DHT22;57473;37.508;15.080;2023-03-04T14:54:37;15.40;58.90
70107;DHT22;57473;37.508;15.080;2023-03-04T14:57:19;15.20;59.90
70107;DHT22;57473;37.508;15.080;2023-03-04T14:59:48;15.00;62.10
70107;DHT22;57473;37.508;15.080;2023-03-04T15:04:48;14.60;66.40
70107;DHT22;57473;37.508;15.080;2023-03-04T15:07:28;14.50;67.80
70107;DHT22;57473;37.508;15.080;2023-03-04T15:09:58;14.40;66.40
70107;DHT22;57473;37.508;15.080;2023-03-04T15:12:30;14.30;66.20
70107;DHT22;57473;37.508;15.080;2023-03-04T15:15:03;14.40;65.70
70107;DHT22;57473;37.508;15.080;2023-03-04T15:17:37;14.40;64.50
70107;DHT22;57473;37.508;15.080;2023-03-04T15:22:32;14.40;64.20
70107;DHT22;57473;37.508;15.080;2023-03-04T15:25:01;14.40;63.70
70107;DHT22;57473;37.508;15.080;2023-03-04T15:27:30;14.40;63.50
70107;DHT22;57473;37.508;15.080;2023-03-04T15:29:59;14.40;63.40
70107;DHT22;57473;37.508;15.080;2023-03-04T15:32:29;14.50;63.30
70107;DHT22;57473;37.508;15.080;2023-03-04T15:35:02;14.50;63.40
70107;DHT22;57473;37.508;15.080;2023-03-04T15:37:48;14.50;63.20
70107;DHT22;57473;37.508;15.080;2023-03-04T15:40:31;14.50;63.30
70107;DHT22;57473;37.508;15.080;2023-03-04T15:43:01;14.40;63.70
70107;DHT22;57473;37.508;15.080;2023-03-04T15:45:38;14.40;64.00
70107;DHT22;57473;37.508;15.080;2023-03-04T15:48:08;14.50;64.00
70107;DHT22;57473;37.508;15.080;2023-03-04T15:51:02;14.40;64.40
70107;DHT22;57473;37.508;15.080;2023-03-04T15:53:36;14.40;64.50
70107;DHT22;57473;37.508;15.080;2023-03-04T15:56:17;14.40;64.70
70107;DHT22;57473;37.508;15.080;2023-03-04T15:59:12;14.40;65.10
70107;DHT22;57473;37.508;15.080;2023-03-04T16:01:36;14.50;64.50
70107;DHT22;57473;37.508;15.080;2023-03-04T16:04:14;14.50;63.50
70107;DHT22;57473;37.508;15.080;2023-03-04T16:06:55;14.50;63.20
70107;DHT22;57473;37.508;15.080;2023-03-04T16:09:28;14.40;63.70
70107;DHT22;57473;37.508;15.080;2023-03-04T16:11:56;14.40;64.30
70107;DHT22;57473;37.508;15.080;2023-03-04T16:14:28;14.40;65.20
70107;DHT22;57473;37.508;15.080;2023-03-04T16:16:55;14.20;66.10
70107;DHT22;57473;37.508;15.080;2023-03-04T16:19:22;14.10;66.80
70107;DHT22;57473;37.508;15.080;2023-03-04T16:21:52;14.00;66.50
70107;DHT22;57473;37.508;15.080;2023-03-04T16:24:19;13.90;66.60
70107;DHT22;57473;37.508;15.080;2023-03-04T16:26:48;13.90;66.80
70107;DHT22;57473;37.508;15.080;2023-03-04T16:29:18;13.90;67.00
70107;DHT22;57473;37.508;15.080;2023-03-04T16:31:46;13.80;67.60
70107;DHT22;57473;37.508;15.080;2023-03-04T16:34:13;13.80;67.80
70107;DHT22;57473;37.508;15.080;2023-03-04T16:36:41;13.80;68.30
70107;DHT22;57473;37.508;15.080;2023-03-04T16:39:19;13.70;69.90
70107;DHT22;57473;37.508;15.080;2023-03-04T16:41:47;13.60;70.10
70107;DHT22;57473;37.508;15.080;2023-03-04T16:44:15;13.50;71.80
70107;DHT22;57473;37.508;15.080;2023-03-04T16:46:42;13.40;71.90
70107;DHT22;57473;37.508;15.080;2023-03-04T16:49:10;13.30;72.20
70107;DHT22;57473;37.508;15.080;2023-03-04T16:51:44;13.20;72.40
70107;DHT22;57473;37.508;15.080;2023-03-04T16:54:28;13.20;72.70
70107;DHT22;57473;37.508;15.080;2023-03-04T16:56:57;13.10;73.20
70107;DHT22;57473;37.508;15.080;2023-03-04T16:59:25;13.00;73.40
70107;DHT22;57473;37.508;15.080;2023-03-04T17:01:53;12.90;74.10
70107;DHT22;57473;37.508;15.080;2023-03-04T17:04:21;12.80;74.60
70107;DHT22;57473;37.508;15.080;2023-03-04T17:06:49;12.80;74.90
70107;DHT22;57473;37.508;15.080;2023-03-04T17:09:16;12.60;75.20
70107;DHT22;57473;37.508;15.080;2023-03-04T17:11:43;12.60;75.60
70107;DHT22;57473;37.508;15.080;2023-03-04T17:14:11;12.50;76.20
70107;DHT22;57473;37.508;15.080;2023-03-04T17:16:39;12.40;76.40
70107;DHT22;57473;37.508;15.080;2023-03-04T17:19:06;12.30;76.90
70107;DHT22;57473;37.508;15.080;2023-03-04T17:21:34;12.30;76.90
70107;DHT22;57473;37.508;15.080;2023-03-04T17:24:02;12.20;77.60
70107;DHT22;57473;37.508;15.080;2023-03-04T17:26:30;12.10;78.10
70107;DHT22;57473;37.508;15.080;2023-03-04T17:28:58;12.10;78.70
70107;DHT22;57473;37.508;15.080;2023-03-04T17:31:26;12.00;79.10
70107;DHT22;57473;37.508;15.080;2023-03-04T17:34:05;11.90;80.00
70107;DHT22;57473;37.508;15.080;2023-03-04T17:36:42;11.90;80.10
70107;DHT22;57473;37.508;15.080;2023-03-04T17:39:12;11.90;79.80
70107;DHT22;57473;37.508;15.080;2023-03-04T17:41:39;11.90;79.50
70107;DHT22;57473;37.508;15.080;2023-03-04T17:44:07;11.90;78.90
70107;DHT22;57473;37.508;15.080;2023-03-04T17:46:34;11.90;79.10
70107;DHT22;57473;37.508;15.080;2023-03-04T17:49:02;11.90;79.10
70107;DHT22;57473;37.508;15.080;2023-03-04T17:51:37;11.80;80.00
70107;DHT22;57473;37.508;15.080;2023-03-04T17:54:08;11.80;80.20
70107;DHT22;57473;37.508;15.080;2023-03-04T17:56:37;11.70;80.70
70107;DHT22;57473;37.508;15.080;2023-03-04T17:59:11;11.70;81.10
70107;DHT22;57473;37.508;15.080;2023-03-04T18:01:39;11.70;81.70